sensor_id;sensor_type;location;lat;lon;timestamp;P1;durP1;ratioP1;P2;durP2;ratioP2
13753;SDS011;6948;51.216;6.778;2023-08-31T00:02:04;6.30;;;2.50;;
13753;SDS011;6948;51.216;6.778;2023-08-31T00:04:30;5.73;;;2.57;;
13753;SDS011;6948;51.216;6.778;2023-08-31T00:06:56;6.80;;;2.50;;
13753;SDS011;6948;51.216;6.778;2023-08-31T00:09:23;7.20;;;2.50;;
13753;SDS011;6948;51.216;6.778;2023-08-31T00:11:49;8.43;;;2.60;;
13753;SDS011;6948;51.216;6.778;2023-08-31T00:14:16;4.67;;;2.37;;
13753;SDS011;6948;51.216;6.778;2023-08-31T00:16:42;5.90;;;2.70;;
13753;SDS011;6948;51.216;6.778;2023-08-31T00:19:10;6.33;;;2.60;;
13753;SDS011;6948;51.216;6.778;2023-08-31T00:21:37;5.57;;;2.60;;
13753;SDS011;6948;51.216;6.778;2023-08-31T00:24:03;8.90;;;2.93;;
13753;SDS011;6948;51.216;6.778;2023-08-31T00:26:29;12.33;;;3.20;;
13753;SDS011;6948;51.216;6.778;2023-08-31T00:28:56;7.30;;;2.80;;
13753;SDS011;6948;51.216;6.778;2023-08-31T00:31:23;8.80;;;2.83;;
13753;SDS011;6948;51.216;6.778;2023-08-31T00:33:49;8.17;;;2.67;;
13753;SDS011;6948;51.216;6.778;2023-08-31T00:36:15;6.27;;;2.73;;
13753;SDS011;6948;51.216;6.778;2023-08-31T00:38:43;6.30;;;2.80;;
13753;SDS011;6948;51.216;6.778;2023-08-31T00:41:09;7.73;;;3.07;;
13753;SDS011;6948;51.216;6.778;2023-08-31T00:43:36;6.93;;;2.80;;
13753;SDS011;6948;51.216;6.778;2023-08-31T00:46:02;10.17;;;3.00;;
13753;SDS011;6948;51.216;6.778;2023-08-31T00:48:29;6.23;;;2.80;;
13753;SDS011;6948;51.216;6.778;2023-08-31T00:50:55;7.37;;;2.83;;
13753;SDS011;6948;51.216;6.778;2023-08-31T00:53:21;5.83;;;2.83;;
13753;SDS011;6948;51.216;6.778;2023-08-31T00:55:48;7.97;;;3.20;;
13753;SDS011;6948;51.216;6.778;2023-08-31T00:58:14;6.40;;;2.47;;
13753;SDS011;6948;51.216;6.778;2023-08-31T01:06:06;5.60;;;3.13;;
13753;SDS011;6948;51.216;6.778;2023-08-31T01:14:01;8.13;;;3.53;;
13753;SDS011;6948;51.216;6.778;2023-08-31T01:16:29;6.37;;;3.30;;
13753;SDS011;6948;51.216;6.778;2023-08-31T01:18:55;6.60;;;3.47;;
13753;SDS011;6948;51.216;6.778;2023-08-31T01:21:27;7.17;;;3.27;;
13753;SDS011;6948;51.216;6.778;2023-08-31T01:23:56;7.97;;;3.70;;
13753;SDS011;6948;51.216;6.778;2023-08-31T01:26:23;5.93;;;3.20;;
13753;SDS011;6948;51.216;6.778;2023-08-31T01:28:50;7.03;;;3.50;;
13753;SDS011;6948;51.216;6.778;2023-08-31T01:31:17;7.70;;;3.60;;
13753;SDS011;6948;51.216;6.778;2023-08-31T01:33:43;5.33;;;3.30;;
13753;SDS011;6948;51.216;6.778;2023-08-31T01:38:58;4.70;;;3.13;;
13753;SDS011;6948;51.216;6.778;2023-08-31T01:41:28;7.63;;;3.40;;
13753;SDS011;6948;51.216;6.778;2023-08-31T01:43:54;7.17;;;3.30;;
13753;SDS011;6948;51.216;6.778;2023-08-31T01:46:21;5.27;;;3.00;;
13753;SDS011;6948;51.216;6.778;2023-08-31T01:48:47;5.50;;;3.13;;
13753;SDS011;6948;51.216;6.778;2023-08-31T01:51:13;5.67;;;3.17;;
13753;SDS011;6948;51.216;6.778;2023-08-31T01:53:39;6.43;;;3.27;;
13753;SDS011;6948;51.216;6.778;2023-08-31T01:56:06;8.03;;;3.10;;
13753;SDS011;6948;51.216;6.778;2023-08-31T01:58:32;5.53;;;3.13;;
13753;SDS011;6948;51.216;6.778;2023-08-31T02:00:58;5.57;;;2.90;;
13753;SDS011;6948;51.216;6.778;2023-08-31T02:03:24;7.23;;;2.77;;
13753;SDS011;6948;51.216;6.778;2023-08-31T02:05:50;5.60;;;3.20;;
13753;SDS011;6948;51.216;6.778;2023-08-31T02:08:17;6.43;;;2.87;;
13753;SDS011;6948;51.216;6.778;2023-08-31T02:10:43;4.70;;;3.00;;
13753;SDS011;6948;51.216;6.778;2023-08-31T02:13:10;3.87;;;2.53;;
13753;SDS011;6948;51.216;6.778;2023-08-31T02:15:38;4.97;;;2.93;;
13753;SDS011;6948;51.216;6.778;2023-08-31T02:18:04;5.47;;;2.73;;
13753;SDS011;6948;51.216;6.778;2023-08-31T02:20:30;4.33;;;2.93;;
13753;SDS011;6948;51.216;6.778;2023-08-31T02:22:56;4.90;;;2.80;;
13753;SDS011;6948;51.216;6.778;2023-08-31T02:25:22;5.20;;;3.03;;
13753;SDS011;6948;51.216;6.778;2023-08-31T02:27:48;6.80;;;3.00;;
13753;SDS011;6948;51.216;6.778;2023-08-31T02:30:14;5.30;;;2.90;;
13753;SDS011;6948;51.216;6.778;2023-08-31T02:32:41;5.37;;;3.20;;
13753;SDS011;6948;51.216;6.778;2023-08-31T02:35:08;6.50;;;2.97;;
13753;SDS011;6948;51.216;6.778;2023-08-31T02:37:34;5.20;;;3.13;;
13753;SDS011;6948;51.216;6.778;2023-08-31T02:40:00;4.67;;;2.80;;
13753;SDS011;6948;51.216;6.778;2023-08-31T02:42:27;4.57;;;2.77;;
13753;SDS011;6948;51.216;6.778;2023-08-31T02:44:53;4.47;;;2.60;;
13753;SDS011;6948;51.216;6.778;2023-08-31T02:47:19;6.63;;;3.10;;
13753;SDS011;6948;51.216;6.778;2023-08-31T02:49:45;5.53;;;2.70;;
13753;SDS011;6948;51.216;6.778;2023-08-31T02:52:13;4.27;;;2.43;;
13753;SDS011;6948;51.216;6.778;2023-08-31T02:54:39;4.43;;;2.40;;
13753;SDS011;6948;51.216;6.778;2023-08-31T02:57:05;6.53;;;3.20;;
13753;SDS011;6948;51.216;6.778;2023-08-31T02:59:31;4.43;;;2.70;;
13753;SDS011;6948;51.216;6.778;2023-08-31T03:02:00;5.30;;;2.50;;
13753;SDS011;6948;51.216;6.778;2023-08-31T03:04:27;3.33;;;2.50;;
13753;SDS011;6948;51.216;6.778;2023-08-31T03:06:53;3.53;;;2.80;;
13753;SDS011;6948;51.216;6.778;2023-08-31T03:09:19;3.50;;;2.70;;
13753;SDS011;6948;51.216;6.778;2023-08-31T03:11:45;3.70;;;2.53;;
13753;SDS011;6948;51.216;6.778;2023-08-31T03:14:11;3.93;;;2.63;;
13753;SDS011;6948;51.216;6.778;2023-08-31T03:16:37;3.87;;;2.50;;
13753;SDS011;6948;51.216;6.778;2023-08-31T03:19:03;3.63;;;2.63;;
13753;SDS011;6948;51.216;6.778;2023-08-31T03:21:30;8.90;;;2.80;;
13753;SDS011;6948;51.216;6.778;2023-08-31T03:23:56;6.07;;;3.10;;
13753;SDS011;6948;51.216;6.778;2023-08-31T03:26:22;3.93;;;2.40;;
13753;SDS011;6948;51.216;6.778;2023-08-31T03:28:48;4.07;;;2.63;;
13753;SDS011;6948;51.216;6.778;2023-08-31T03:31:14;4.90;;;2.37;;
13753;SDS011;6948;51.216;6.778;2023-08-31T03:33:40;4.53;;;2.60;;
13753;SDS011;6948;51.216;6.778;2023-08-31T03:36:06;5.10;;;2.43;;
13753;SDS011;6948;51.216;6.778;2023-08-31T03:38:32;2.80;;;2.50;;
13753;SDS011;6948;51.216;6.778;2023-08-31T03:41:02;4.63;;;2.57;;
13753;SDS011;6948;51.216;6.778;2023-08-31T03:43:29;4.07;;;2.67;;
13753;SDS011;6948;51.216;6.778;2023-08-31T03:45:55;4.73;;;2.80;;
13753;SDS011;6948;51.216;6.778;2023-08-31T03:48:22;4.37;;;3.07;;
13753;SDS011;6948;51.216;6.778;2023-08-31T03:50:49;4.03;;;2.87;;
13753;SDS011;6948;51.216;6.778;2023-08-31T03:53:16;3.20;;;2.83;;
13753;SDS011;6948;51.216;6.778;2023-08-31T03:55:42;4.27;;;2.87;;
13753;SDS011;6948;51.216;6.778;2023-08-31T03:58:08;5.00;;;3.00;;
13753;SDS011;6948;51.216;6.778;2023-08-31T04:00:34;4.80;;;3.00;;
13753;SDS011;6948;51.216;6.778;2023-08-31T04:03:00;5.20;;;3.50;;
13753;SDS011;6948;51.216;6.778;2023-08-31T04:05:26;4.33;;;3.50;;
13753;SDS011;6948;51.216;6.778;2023-08-31T04:07:52;3.87;;;3.30;;
13753;SDS011;6948;51.216;6.778;2023-08-31T04:10:19;5.67;;;3.53;;
13753;SDS011;6948;51.216;6.778;2023-08-31T04:12:45;4.87;;;3.53;;
13753;SDS011;6948;51.216;6.778;2023-08-31T04:15:11;6.73;;;3.53;;
13753;SDS011;6948;51.216;6.778;2023-08-31T04:17:38;6.40;;;3.93;;
13753;SDS011;6948;51.216;6.778;2023-08-31T04:20:05;6.27;;;4.43;;
13753;SDS011;6948;51.216;6.778;2023-08-31T04:22:31;6.13;;;4.47;;
13753;SDS011;6948;51.216;6.778;2023-08-31T04:24:57;6.27;;;3.73;;
13753;SDS011;6948;51.216;6.778;2023-08-31T04:27:23;5.00;;;3.67;;
13753;SDS011;6948;51.216;6.778;2023-08-31T04:29:49;4.60;;;3.60;;
13753;SDS011;6948;51.216;6.778;2023-08-31T04:32:15;8.63;;;3.73;;
13753;SDS011;6948;51.216;6.778;2023-08-31T04:34:41;4.47;;;3.40;;
13753;SDS011;6948;51.216;6.778;2023-08-31T04:37:07;6.20;;;3.63;;
13753;SDS011;6948;51.216;6.778;2023-08-31T04:39:33;5.07;;;3.87;;
13753;SDS011;6948;51.216;6.778;2023-08-31T04:41:59;6.03;;;3.93;;
13753;SDS011;6948;51.216;6.778;2023-08-31T04:44:25;4.13;;;3.50;;
13753;SDS011;6948;51.216;6.778;2023-08-31T04:46:51;8.60;;;3.70;;
13753;SDS011;6948;51.216;6.778;2023-08-31T04:49:17;4.00;;;3.60;;
13753;SDS011;6948;51.216;6.778;2023-08-31T04:51:44;7.23;;;3.47;;
13753;SDS011;6948;51.216;6.778;2023-08-31T04:54:10;5.60;;;3.20;;
13753;SDS011;6948;51.216;6.778;2023-08-31T04:56:36;4.87;;;3.40;;
13753;SDS011;6948;51.216;6.778;2023-08-31T04:59:02;6.77;;;3.63;;
13753;SDS011;6948;51.216;6.778;2023-08-31T05:01:28;4.37;;;3.63;;
13753;SDS011;6948;51.216;6.778;2023-08-31T05:03:54;5.90;;;3.37;;
13753;SDS011;6948;51.216;6.778;2023-08-31T05:06:20;4.90;;;4.00;;
13753;SDS011;6948;51.216;6.778;2023-08-31T05:08:47;6.13;;;3.70;;
13753;SDS011;6948;51.216;6.778;2023-08-31T05:11:14;5.37;;;3.63;;
13753;SDS011;6948;51.216;6.778;2023-08-31T05:13:40;6.93;;;3.73;;
13753;SDS011;6948;51.216;6.778;2023-08-31T05:16:07;5.50;;;4.13;;
13753;SDS011;6948;51.216;6.778;2023-08-31T05:18:33;6.30;;;3.47;;
13753;SDS011;6948;51.216;6.778;2023-08-31T05:21:01;6.67;;;4.20;;
13753;SDS011;6948;51.216;6.778;2023-08-31T05:23:27;4.43;;;4.03;;
13753;SDS011;6948;51.216;6.778;2023-08-31T05:25:53;8.37;;;3.83;;
13753;SDS011;6948;51.216;6.778;2023-08-31T05:28:21;7.50;;;4.40;;
13753;SDS011;6948;51.216;6.778;2023-08-31T05:30:49;8.13;;;4.50;;
13753;SDS011;6948;51.216;6.778;2023-08-31T05:33:16;5.40;;;3.77;;
13753;SDS011;6948;51.216;6.778;2023-08-31T05:35:43;6.60;;;4.50;;
13753;SDS011;6948;51.216;6.778;2023-08-31T05:38:09;5.23;;;4.20;;
13753;SDS011;6948;51.216;6.778;2023-08-31T05:40:35;6.27;;;3.73;;
13753;SDS011;6948;51.216;6.778;2023-08-31T05:43:02;9.77;;;4.30;;
13753;SDS011;6948;51.216;6.778;2023-08-31T05:45:31;7.60;;;4.30;;
13753;SDS011;6948;51.216;6.778;2023-08-31T05:47:57;7.37;;;4.60;;
13753;SDS011;6948;51.216;6.778;2023-08-31T05:50:23;6.73;;;4.10;;
13753;SDS011;6948;51.216;6.778;2023-08-31T05:52:50;6.93;;;4.00;;
13753;SDS011;6948;51.216;6.778;2023-08-31T05:55:16;6.60;;;4.30;;
13753;SDS011;6948;51.216;6.778;2023-08-31T05:57:42;12.43;;;4.53;;
13753;SDS011;6948;51.216;6.778;2023-08-31T06:00:09;9.57;;;4.10;;
13753;SDS011;6948;51.216;6.778;2023-08-31T06:02:35;6.93;;;3.90;;
13753;SDS011;6948;51.216;6.778;2023-08-31T06:05:01;6.77;;;4.10;;
13753;SDS011;6948;51.216;6.778;2023-08-31T06:07:29;7.37;;;4.27;;
13753;SDS011;6948;51.216;6.778;2023-08-31T06:09:55;5.70;;;4.33;;
13753;SDS011;6948;51.216;6.778;2023-08-31T06:12:21;7.23;;;3.90;;
13753;SDS011;6948;51.216;6.778;2023-08-31T06:14:47;7.03;;;4.23;;
13753;SDS011;6948;51.216;6.778;2023-08-31T06:17:13;6.67;;;3.83;;
13753;SDS011;6948;51.216;6.778;2023-08-31T06:19:40;6.80;;;3.90;;
13753;SDS011;6948;51.216;6.778;2023-08-31T06:22:06;7.27;;;4.10;;
13753;SDS011;6948;51.216;6.778;2023-08-31T06:24:32;5.17;;;4.13;;
13753;SDS011;6948;51.216;6.778;2023-08-31T06:26:59;6.33;;;4.10;;
13753;SDS011;6948;51.216;6.778;2023-08-31T06:29:25;5.40;;;3.70;;
13753;SDS011;6948;51.216;6.778;2023-08-31T06:31:51;9.27;;;4.27;;
13753;SDS011;6948;51.216;6.778;2023-08-31T06:34:17;6.90;;;4.00;;
13753;SDS011;6948;51.216;6.778;2023-08-31T06:36:44;6.27;;;4.13;;
13753;SDS011;6948;51.216;6.778;2023-08-31T06:39:10;7.10;;;4.20;;
13753;SDS011;6948;51.216;6.778;2023-08-31T06:41:36;4.90;;;3.97;;
13753;SDS011;6948;51.216;6.778;2023-08-31T06:44:02;7.60;;;4.00;;
13753;SDS011;6948;51.216;6.778;2023-08-31T06:46:30;10.03;;;4.20;;
13753;SDS011;6948;51.216;6.778;2023-08-31T06:49:03;6.20;;;4.00;;
13753;SDS011;6948;51.216;6.778;2023-08-31T06:51:30;7.60;;;4.20;;
13753;SDS011;6948;51.216;6.778;2023-08-31T06:53:56;11.10;;;4.40;;
13753;SDS011;6948;51.216;6.778;2023-08-31T06:56:27;6.90;;;3.37;;
13753;SDS011;6948;51.216;6.778;2023-08-31T06:58:53;4.70;;;3.60;;
13753;SDS011;6948;51.216;6.778;2023-08-31T07:01:19;6.83;;;3.80;;
13753;SDS011;6948;51.216;6.778;2023-08-31T07:03:45;5.43;;;3.63;;
13753;SDS011;6948;51.216;6.778;2023-08-31T07:06:11;5.13;;;3.60;;
13753;SDS011;6948;51.216;6.778;2023-08-31T07:08:37;6.33;;;3.93;;
13753;SDS011;6948;51.216;6.778;2023-08-31T07:11:06;6.97;;;3.80;;
13753;SDS011;6948;51.216;6.778;2023-08-31T07:13:32;5.87;;;3.80;;
13753;SDS011;6948;51.216;6.778;2023-08-31T07:15:58;7.77;;;3.73;;
13753;SDS011;6948;51.216;6.778;2023-08-31T07:18:24;7.23;;;3.90;;
13753;SDS011;6948;51.216;6.778;2023-08-31T07:20:50;5.30;;;3.50;;
13753;SDS011;6948;51.216;6.778;2023-08-31T07:23:16;6.47;;;3.73;;
13753;SDS011;6948;51.216;6.778;2023-08-31T07:25:42;6.80;;;3.47;;
13753;SDS011;6948;51.216;6.778;2023-08-31T07:28:08;5.30;;;3.50;;
13753;SDS011;6948;51.216;6.778;2023-08-31T07:30:35;5.80;;;3.73;;
13753;SDS011;6948;51.216;6.778;2023-08-31T07:33:02;6.97;;;3.60;;
13753;SDS011;6948;51.216;6.778;2023-08-31T07:35:30;6.83;;;3.57;;
13753;SDS011;6948;51.216;6.778;2023-08-31T07:37:56;5.83;;;3.30;;
13753;SDS011;6948;51.216;6.778;2023-08-31T07:40:22;6.40;;;3.33;;
13753;SDS011;6948;51.216;6.778;2023-08-31T07:42:48;7.47;;;3.93;;
13753;SDS011;6948;51.216;6.778;2023-08-31T07:45:16;7.27;;;3.70;;
13753;SDS011;6948;51.216;6.778;2023-08-31T07:47:42;6.03;;;3.40;;
13753;SDS011;6948;51.216;6.778;2023-08-31T07:50:08;5.53;;;3.67;;
13753;SDS011;6948;51.216;6.778;2023-08-31T07:52:34;8.70;;;3.37;;
13753;SDS011;6948;51.216;6.778;2023-08-31T07:55:00;6.23;;;3.30;;
13753;SDS011;6948;51.216;6.778;2023-08-31T07:57:26;8.70;;;3.40;;
13753;SDS011;6948;51.216;6.778;2023-08-31T07:59:53;5.03;;;3.03;;
13753;SDS011;6948;51.216;6.778;2023-08-31T08:02:19;10.47;;;3.50;;
13753;SDS011;6948;51.216;6.778;2023-08-31T08:04:46;11.33;;;3.30;;
13753;SDS011;6948;51.216;6.778;2023-08-31T08:07:12;6.00;;;3.10;;
13753;SDS011;6948;51.216;6.778;2023-08-31T08:09:38;6.60;;;3.30;;
13753;SDS011;6948;51.216;6.778;2023-08-31T08:12:04;5.57;;;3.00;;
13753;SDS011;6948;51.216;6.778;2023-08-31T08:14:30;5.60;;;3.00;;
13753;SDS011;6948;51.216;6.778;2023-08-31T08:16:56;5.50;;;3.20;;
13753;SDS011;6948;51.216;6.778;2023-08-31T08:19:23;6.30;;;2.60;;
13753;SDS011;6948;51.216;6.778;2023-08-31T08:21:50;6.47;;;2.87;;
13753;SDS011;6948;51.216;6.778;2023-08-31T08:24:17;6.40;;;2.83;;
13753;SDS011;6948;51.216;6.778;2023-08-31T08:26:43;6.30;;;3.20;;
13753;SDS011;6948;51.216;6.778;2023-08-31T08:29:09;4.93;;;2.70;;
13753;SDS011;6948;51.216;6.778;2023-08-31T08:31:35;5.43;;;3.03;;
13753;SDS011;6948;51.216;6.778;2023-08-31T08:34:01;5.83;;;3.23;;
13753;SDS011;6948;51.216;6.778;2023-08-31T08:36:28;5.00;;;2.80;;
13753;SDS011;6948;51.216;6.778;2023-08-31T08:38:55;5.30;;;2.97;;
13753;SDS011;6948;51.216;6.778;2023-08-31T08:41:22;7.10;;;2.80;;
13753;SDS011;6948;51.216;6.778;2023-08-31T08:43:49;6.90;;;2.90;;
13753;SDS011;6948;51.216;6.778;2023-08-31T08:46:16;5.03;;;2.97;;
13753;SDS011;6948;51.216;6.778;2023-08-31T08:48:43;5.43;;;2.80;;
13753;SDS011;6948;51.216;6.778;2023-08-31T08:51:10;5.10;;;2.60;;
13753;SDS011;6948;51.216;6.778;2023-08-31T08:53:36;6.33;;;2.73;;
13753;SDS011;6948;51.216;6.778;2023-08-31T08:56:04;4.87;;;2.40;;
13753;SDS011;6948;51.216;6.778;2023-08-31T08:58:30;4.93;;;2.60;;
13753;SDS011;6948;51.216;6.778;2023-08-31T09:00:56;4.10;;;2.40;;
13753;SDS011;6948;51.216;6.778;2023-08-31T09:03:23;6.47;;;2.87;;
13753;SDS011;6948;51.216;6.778;2023-08-31T09:05:50;6.20;;;3.17;;
13753;SDS011;6948;51.216;6.778;2023-08-31T09:08:17;5.03;;;2.40;;
13753;SDS011;6948;51.216;6.778;2023-08-31T09:10:50;7.70;;;2.50;;
13753;SDS011;6948;51.216;6.778;2023-08-31T09:13:17;5.60;;;2.80;;
13753;SDS011;6948;51.216;6.778;2023-08-31T09:15:44;6.13;;;2.80;;
13753;SDS011;6948;51.216;6.778;2023-08-31T09:21:03;5.57;;;2.60;;
13753;SDS011;6948;51.216;6.778;2023-08-31T09:23:30;3.47;;;2.10;;
13753;SDS011;6948;51.216;6.778;2023-08-31T09:25:56;5.13;;;2.97;;
13753;SDS011;6948;51.216;6.778;2023-08-31T09:28:23;4.47;;;2.50;;
13753;SDS011;6948;51.216;6.778;2023-08-31T09:30:51;5.90;;;2.90;;
13753;SDS011;6948;51.216;6.778;2023-08-31T09:33:18;5.20;;;2.50;;
13753;SDS011;6948;51.216;6.778;2023-08-31T09:35:48;5.53;;;2.77;;
13753;SDS011;6948;51.216;6.778;2023-08-31T09:38:15;3.77;;;2.50;;
13753;SDS011;6948;51.216;6.778;2023-08-31T09:40:41;4.07;;;2.00;;
13753;SDS011;6948;51.216;6.778;2023-08-31T09:43:07;4.57;;;2.20;;
13753;SDS011;6948;51.216;6.778;2023-08-31T09:45:34;5.23;;;2.70;;
13753;SDS011;6948;51.216;6.778;2023-08-31T09:48:01;6.87;;;2.97;;
13753;SDS011;6948;51.216;6.778;2023-08-31T09:50:28;6.23;;;2.70;;
13753;SDS011;6948;51.216;6.778;2023-08-31T09:52:57;4.87;;;2.50;;
13753;SDS011;6948;51.216;6.778;2023-08-31T09:55:26;7.17;;;3.00;;
13753;SDS011;6948;51.216;6.778;2023-08-31T09:57:54;3.30;;;2.27;;
13753;SDS011;6948;51.216;6.778;2023-08-31T10:00:21;5.37;;;2.73;;
13753;SDS011;6948;51.216;6.778;2023-08-31T10:02:48;2.97;;;2.30;;
13753;SDS011;6948;51.216;6.778;2023-08-31T10:05:14;5.40;;;2.70;;
13753;SDS011;6948;51.216;6.778;2023-08-31T10:07:41;7.20;;;2.60;;
13753;SDS011;6948;51.216;6.778;2023-08-31T10:10:08;4.10;;;2.20;;
13753;SDS011;6948;51.216;6.778;2023-08-31T10:12:35;3.43;;;2.30;;
13753;SDS011;6948;51.216;6.778;2023-08-31T10:15:01;5.23;;;2.17;;
13753;SDS011;6948;51.216;6.778;2023-08-31T10:17:28;5.23;;;3.00;;
13753;SDS011;6948;51.216;6.778;2023-08-31T10:19:55;4.30;;;2.30;;
13753;SDS011;6948;51.216;6.778;2023-08-31T10:22:21;4.37;;;2.37;;
13753;SDS011;6948;51.216;6.778;2023-08-31T10:25:04;7.97;;;2.60;;
13753;SDS011;6948;51.216;6.778;2023-08-31T10:27:39;7.07;;;2.50;;
13753;SDS011;6948;51.216;6.778;2023-08-31T10:30:12;4.47;;;2.60;;
13753;SDS011;6948;51.216;6.778;2023-08-31T10:32:38;5.03;;;2.43;;
13753;SDS011;6948;51.216;6.778;2023-08-31T10:35:05;4.17;;;2.40;;
13753;SDS011;6948;51.216;6.778;2023-08-31T10:37:31;10.27;;;5.20;;
13753;SDS011;6948;51.216;6.778;2023-08-31T10:40:13;6.47;;;2.97;;
13753;SDS011;6948;51.216;6.778;2023-08-31T10:42:43;5.17;;;2.40;;
13753;SDS011;6948;51.216;6.778;2023-08-31T10:45:09;5.83;;;2.50;;
13753;SDS011;6948;51.216;6.778;2023-08-31T10:47:36;6.47;;;2.47;;
13753;SDS011;6948;51.216;6.778;2023-08-31T10:50:20;5.70;;;2.80;;
13753;SDS011;6948;51.216;6.778;2023-08-31T10:52:46;5.83;;;2.30;;
13753;SDS011;6948;51.216;6.778;2023-08-31T10:55:12;5.87;;;2.37;;
13753;SDS011;6948;51.216;6.778;2023-08-31T10:57:39;4.77;;;2.30;;
13753;SDS011;6948;51.216;6.778;2023-08-31T11:00:07;7.23;;;2.43;;
13753;SDS011;6948;51.216;6.778;2023-08-31T11:05:17;6.93;;;2.27;;
13753;SDS011;6948;51.216;6.778;2023-08-31T11:07:45;3.97;;;2.20;;
13753;SDS011;6948;51.216;6.778;2023-08-31T11:12:51;6.17;;;2.53;;
13753;SDS011;6948;51.216;6.778;2023-08-31T11:15:18;5.03;;;2.10;;
13753;SDS011;6948;51.216;6.778;2023-08-31T11:17:44;6.23;;;2.70;;
13753;SDS011;6948;51.216;6.778;2023-08-31T11:20:15;5.80;;;2.10;;
13753;SDS011;6948;51.216;6.778;2023-08-31T11:22:42;5.40;;;2.27;;
13753;SDS011;6948;51.216;6.778;2023-08-31T11:25:10;4.97;;;2.10;;
13753;SDS011;6948;51.216;6.778;2023-08-31T11:27:37;5.77;;;2.30;;
13753;SDS011;6948;51.216;6.778;2023-08-31T11:30:03;8.03;;;2.53;;
13753;SDS011;6948;51.216;6.778;2023-08-31T11:32:29;8.63;;;2.67;;
13753;SDS011;6948;51.216;6.778;2023-08-31T11:34:56;5.27;;;2.10;;
13753;SDS011;6948;51.216;6.778;2023-08-31T11:37:22;7.20;;;2.70;;
13753;SDS011;6948;51.216;6.778;2023-08-31T11:39:49;6.23;;;2.53;;
13753;SDS011;6948;51.216;6.778;2023-08-31T11:42:16;7.23;;;2.20;;
13753;SDS011;6948;51.216;6.778;2023-08-31T11:44:43;5.43;;;2.40;;
13753;SDS011;6948;51.216;6.778;2023-08-31T11:47:10;5.97;;;2.20;;
13753;SDS011;6948;51.216;6.778;2023-08-31T11:49:36;7.30;;;2.67;;
13753;SDS011;6948;51.216;6.778;2023-08-31T11:52:02;6.43;;;2.60;;
13753;SDS011;6948;51.216;6.778;2023-08-31T11:54:28;5.37;;;2.73;;
13753;SDS011;6948;51.216;6.778;2023-08-31T11:56:54;6.97;;;2.70;;
13753;SDS011;6948;51.216;6.778;2023-08-31T11:59:21;8.00;;;2.53;;
13753;SDS011;6948;51.216;6.778;2023-08-31T12:01:48;5.17;;;2.60;;
13753;SDS011;6948;51.216;6.778;2023-08-31T12:06:51;4.57;;;2.37;;
13753;SDS011;6948;51.216;6.778;2023-08-31T12:09:19;5.60;;;2.80;;
13753;SDS011;6948;51.216;6.778;2023-08-31T12:11:50;4.43;;;2.47;;
13753;SDS011;6948;51.216;6.778;2023-08-31T12:14:19;4.77;;;2.60;;
13753;SDS011;6948;51.216;6.778;2023-08-31T12:16:45;4.53;;;2.37;;
13753;SDS011;6948;51.216;6.778;2023-08-31T12:19:11;4.87;;;2.70;;
13753;SDS011;6948;51.216;6.778;2023-08-31T12:21:37;5.77;;;2.33;;
13753;SDS011;6948;51.216;6.778;2023-08-31T12:24:04;4.20;;;2.10;;
13753;SDS011;6948;51.216;6.778;2023-08-31T12:26:31;4.33;;;2.20;;
13753;SDS011;6948;51.216;6.778;2023-08-31T12:28:57;5.10;;;2.40;;
13753;SDS011;6948;51.216;6.778;2023-08-31T12:31:23;7.60;;;2.40;;
13753;SDS011;6948;51.216;6.778;2023-08-31T12:33:50;5.87;;;2.40;;
13753;SDS011;6948;51.216;6.778;2023-08-31T12:36:16;5.40;;;2.07;;
13753;SDS011;6948;51.216;6.778;2023-08-31T12:38:42;3.70;;;2.13;;
13753;SDS011;6948;51.216;6.778;2023-08-31T12:41:08;4.93;;;2.10;;
13753;SDS011;6948;51.216;6.778;2023-08-31T12:43:35;6.53;;;2.23;;
13753;SDS011;6948;51.216;6.778;2023-08-31T12:46:01;6.40;;;2.10;;
13753;SDS011;6948;51.216;6.778;2023-08-31T12:48:30;7.73;;;2.27;;
13753;SDS011;6948;51.216;6.778;2023-08-31T12:50:56;6.23;;;2.10;;
13753;SDS011;6948;51.216;6.778;2023-08-31T12:53:22;6.10;;;2.33;;
13753;SDS011;6948;51.216;6.778;2023-08-31T12:55:48;5.00;;;2.23;;
13753;SDS011;6948;51.216;6.778;2023-08-31T12:58:15;6.30;;;2.40;;
13753;SDS011;6948;51.216;6.778;2023-08-31T13:00:41;3.90;;;2.10;;
13753;SDS011;6948;51.216;6.778;2023-08-31T13:03:08;5.77;;;2.30;;
13753;SDS011;6948;51.216;6.778;2023-08-31T13:05:38;6.00;;;2.50;;
13753;SDS011;6948;51.216;6.778;2023-08-31T13:08:05;5.20;;;2.10;;
13753;SDS011;6948;51.216;6.778;2023-08-31T13:10:31;6.77;;;2.50;;
13753;SDS011;6948;51.216;6.778;2023-08-31T13:12:57;5.03;;;2.20;;
13753;SDS011;6948;51.216;6.778;2023-08-31T13:15:23;6.00;;;2.30;;
13753;SDS011;6948;51.216;6.778;2023-08-31T13:17:49;2.67;;;1.80;;
13753;SDS011;6948;51.216;6.778;2023-08-31T13:20:15;4.37;;;2.10;;
13753;SDS011;6948;51.216;6.778;2023-08-31T13:22:41;4.93;;;2.03;;
13753;SDS011;6948;51.216;6.778;2023-08-31T13:25:07;5.30;;;2.17;;
13753;SDS011;6948;51.216;6.778;2023-08-31T13:27:34;6.23;;;2.13;;
13753;SDS011;6948;51.216;6.778;2023-08-31T13:30:00;5.37;;;2.27;;
13753;SDS011;6948;51.216;6.778;2023-08-31T13:32:30;5.10;;;2.07;;
13753;SDS011;6948;51.216;6.778;2023-08-31T13:34:56;2.37;;;1.80;;
13753;SDS011;6948;51.216;6.778;2023-08-31T13:37:23;3.57;;;1.90;;
13753;SDS011;6948;51.216;6.778;2023-08-31T13:39:49;4.30;;;1.90;;
13753;SDS011;6948;51.216;6.778;2023-08-31T13:42:17;3.67;;;1.77;;
13753;SDS011;6948;51.216;6.778;2023-08-31T13:44:43;5.63;;;1.77;;
13753;SDS011;6948;51.216;6.778;2023-08-31T13:47:09;4.27;;;1.93;;
13753;SDS011;6948;51.216;6.778;2023-08-31T13:49:36;4.80;;;2.07;;
13753;SDS011;6948;51.216;6.778;2023-08-31T13:52:02;4.80;;;2.30;;
13753;SDS011;6948;51.216;6.778;2023-08-31T13:54:30;3.90;;;2.10;;
13753;SDS011;6948;51.216;6.778;2023-08-31T13:56:56;6.50;;;2.47;;
13753;SDS011;6948;51.216;6.778;2023-08-31T13:59:22;4.90;;;2.10;;
13753;SDS011;6948;51.216;6.778;2023-08-31T14:01:48;7.07;;;2.10;;
13753;SDS011;6948;51.216;6.778;2023-08-31T14:04:14;4.50;;;2.10;;
13753;SDS011;6948;51.216;6.778;2023-08-31T14:06:40;4.23;;;2.07;;
13753;SDS011;6948;51.216;6.778;2023-08-31T14:09:06;4.43;;;2.17;;
13753;SDS011;6948;51.216;6.778;2023-08-31T14:11:33;4.93;;;1.93;;
13753;SDS011;6948;51.216;6.778;2023-08-31T14:14:04;5.80;;;2.17;;
13753;SDS011;6948;51.216;6.778;2023-08-31T14:16:34;5.03;;;2.03;;
13753;SDS011;6948;51.216;6.778;2023-08-31T14:19:02;5.30;;;1.90;;
13753;SDS011;6948;51.216;6.778;2023-08-31T14:21:28;6.00;;;2.20;;
13753;SDS011;6948;51.216;6.778;2023-08-31T14:23:54;3.80;;;2.10;;
13753;SDS011;6948;51.216;6.778;2023-08-31T14:26:21;6.77;;;2.67;;
13753;SDS011;6948;51.216;6.778;2023-08-31T14:28:47;7.03;;;2.37;;
13753;SDS011;6948;51.216;6.778;2023-08-31T14:31:13;5.17;;;1.90;;
13753;SDS011;6948;51.216;6.778;2023-08-31T14:33:40;4.00;;;2.00;;
13753;SDS011;6948;51.216;6.778;2023-08-31T14:36:06;3.73;;;1.80;;
13753;SDS011;6948;51.216;6.778;2023-08-31T14:38:32;3.53;;;1.90;;
13753;SDS011;6948;51.216;6.778;2023-08-31T14:40:58;4.73;;;2.23;;
13753;SDS011;6948;51.216;6.778;2023-08-31T14:43:24;4.00;;;2.00;;
13753;SDS011;6948;51.216;6.778;2023-08-31T14:45:50;3.87;;;2.10;;
13753;SDS011;6948;51.216;6.778;2023-08-31T14:48:16;3.40;;;2.13;;
13753;SDS011;6948;51.216;6.778;2023-08-31T14:50:43;7.87;;;3.00;;
13753;SDS011;6948;51.216;6.778;2023-08-31T14:53:09;6.60;;;2.40;;
13753;SDS011;6948;51.216;6.778;2023-08-31T14:55:36;4.73;;;2.20;;
13753;SDS011;6948;51.216;6.778;2023-08-31T14:58:03;3.50;;;2.10;;
13753;SDS011;6948;51.216;6.778;2023-08-31T15:00:31;4.40;;;2.20;;
13753;SDS011;6948;51.216;6.778;2023-08-31T15:02:57;4.43;;;2.43;;
13753;SDS011;6948;51.216;6.778;2023-08-31T15:05:23;5.20;;;2.30;;
13753;SDS011;6948;51.216;6.778;2023-08-31T15:07:50;4.57;;;2.30;;
13753;SDS011;6948;51.216;6.778;2023-08-31T15:10:16;5.80;;;2.50;;
13753;SDS011;6948;51.216;6.778;2023-08-31T15:12:43;3.60;;;2.30;;
13753;SDS011;6948;51.216;6.778;2023-08-31T15:15:09;5.10;;;2.30;;
13753;SDS011;6948;51.216;6.778;2023-08-31T15:17:35;6.77;;;2.70;;
13753;SDS011;6948;51.216;6.778;2023-08-31T15:20:02;7.80;;;2.53;;
13753;SDS011;6948;51.216;6.778;2023-08-31T15:22:29;8.10;;;2.43;;